Ulsan Airport
RKPU : now visible

Airfield :











YOU CAN JOIN US ON...

 
LOGIN :

Register | Disclaimer

   EN    FR    IT 

 









Legend :    VFR   Marginal VFR   IFR   Intensive IFR   Very Intensive IFR
Visi :
Ceiling :
>= 8 km
>= 3000ft
5 to 8 km
1000 to 3000 ft
1500m to 5 km
500 to 1000 ft
800 to 1500m
200 to 500 ft
< 800m
< 200 ft
Symbols :   Thunderstorms  Fog  Heavy snow  Heavy precipitations  Wind > 20 kt






- Airport Elevation : 45 ft
- IATA code : USN


RKPU - Ulsan

METAR N/A
TAF TAF RKPU
Valid from the 16 at 19:00 until the 18 at 01:00 UTC


161800Z 1619/1801 35006KT 6000 NSC TN05/1621Z TX18/1705Z TN14/1721Z
BECMG 1703/1704 18007KT BKN030 OVC120
BECMG 1709/1710 4200 -RA SCT010 BKN025 OVC080
BECMG 1712/1713 18015G25KT
BECMG 1718/1719 22020G35KT
BECMG 1721/1722 30015G25KT



MET'MAP, your aeronautical weather chart ! - Copyright ORBIFLY December 2007 - Disclaimer

ORBIFLY MET'MAP TEAM :

Programming & Development : Alexandra Zaïnal
Concept & Development : Baudouin d'Aumeries
Co-Development & Prog : Marc-Olivier Méhu
Technical & hardware support : Manuel Goepfert

Contact : metmap@orbifly.com




SOURCES & CREDITS :

   NOAA       Earth
Advisory